Academy, New Jersey
Current Conditions -  °F | °C
As of 6:51 AM on Thursday 18 Dec 2014 (Local Time) from KEWR Reporting Station
Overcast Overcast  
Wind Chill: 31°   Ceiling: 4400
Heat Index: 38°   Visibility: 10mi
Dew Point: 22°   Wind: 9mph
Humidity: 53%   Direction: 300°WNW
Pressure: 29.97"   Gusts: 20mph
Location:  40.7334°N, 74.1735°W
Report Text: KEWR 181151Z 30008G17KT 10SM OVC044 03/M06 A2997 RMK AO2 SLP149 T00331056 10039 20028 53016 PNO $
Loading
Personal Weather Stations






























Interactive Weather Map New forecast layout! Learn more

10-Day Weather Forecast

Advertisements
Track Severe Weather on mobile